Arcadia, Oklahoma
Current Conditions -  °F | °C
As of 6:53 AM on Saturday 25 Oct 2014 (Local Time) from KGOK Reporting Station
Clear Clear  
Wind Chill: 62°   Ceiling: Unl
Heat Index: 62°   Visibility: 10mi
Dew Point: 59°   Wind: 6mph
Humidity: 90%   Direction: 190°S
Pressure: 30.04"   Gusts: NA
Location:  35.67°N, 97.33°W
Report Text: KGOK 251153Z AUTO 19005KT 10SM CLR 17/15 A3004 RMK AO2 SLP165 T01670150 10194 20167 57001
Loading
Personal Weather Stations






























Interactive Weather Map
Tropical Storm Tracking
New forecast layout! Learn more

10-Day Weather Forecast

Advertisements
Track Severe Weather on mobile